createdAt,value
2022-12-31T00:02:50.596Z,101219.09
2022-12-31T00:05:53.222Z,101212.28
2022-12-31T00:08:59.117Z,101174.41
2022-12-31T00:12:01.775Z,101213.16
2022-12-31T00:15:04.468Z,101222.44
2022-12-31T00:18:07.634Z,101202.13
2022-12-31T00:21:10.695Z,101224.34
2022-12-31T00:24:13.152Z,101223.56
2022-12-31T00:27:15.550Z,101222.81
2022-12-31T00:30:18.076Z,101238.22
2022-12-31T00:33:20.426Z,101228.84
2022-12-31T00:36:29.127Z,101204.94
2022-12-31T00:39:31.614Z,101216.81
2022-12-31T00:42:33.934Z,101223.69
2022-12-31T00:45:36.330Z,101226.25
2022-12-31T00:48:39.176Z,101205.72
2022-12-31T00:51:41.649Z,101219.41
2022-12-31T00:54:44.316Z,101237.41
2022-12-31T00:57:46.694Z,101208.34
2022-12-31T01:00:49.120Z,101212.72
2022-12-31T01:03:55.184Z,101246.88
2022-12-31T01:06:57.555Z,101216.13
2022-12-31T01:09:59.975Z,101222.97
2022-12-31T01:13:02.468Z,101218.66
2022-12-31T01:16:12.740Z,101234.91
2022-12-31T01:19:18.432Z,101251.19
2022-12-31T01:22:20.824Z,101255.50
2022-12-31T01:25:23.241Z,101245.25
2022-12-31T01:28:25.757Z,101248.69
2022-12-31T01:31:28.756Z,101264.09
2022-12-31T01:34:31.141Z,101263.19
2022-12-31T01:37:33.514Z,101233.28
2022-12-31T01:40:40.394Z,101253.88
2022-12-31T01:43:44.439Z,101253.00
2022-12-31T01:46:49.584Z,101216.16
2022-12-31T01:50:02.302Z,101243.53
2022-12-31T01:53:06.898Z,101240.94
2022-12-31T01:56:09.812Z,101243.53
2022-12-31T01:59:14.639Z,101236.63
2022-12-31T02:02:17.290Z,101249.47
2022-12-31T02:05:25.302Z,101245.25
2022-12-31T02:08:27.751Z,101225.53
2022-12-31T02:11:36.578Z,101238.34
2022-12-31T02:14:45.753Z,101228.97
2022-12-31T02:18:22.772Z,101263.09
2022-12-31T02:21:43.468Z,101229.78
2022-12-31T02:24:48.553Z,101264.03
2022-12-31T02:28:23.295Z,101270.88
2022-12-31T02:31:37.175Z,101275.16
2022-12-31T02:34:48.904Z,101279.47
2022-12-31T02:37:56.987Z,101261.53
2022-12-31T02:41:00.341Z,101264.03
2022-12-31T02:44:19.666Z,101253.75
2022-12-31T02:47:27.942Z,101282.84
2022-12-31T02:50:55.555Z,101276.13
2022-12-31T02:54:36.802Z,101292.34
2022-12-31T02:57:47.401Z,101258.13
2022-12-31T03:01:13.387Z,101249.50
2022-12-31T03:04:32.142Z,101243.53
2022-12-31T03:07:35.021Z,101268.31
2022-12-31T03:10:37.734Z,101277.75
2022-12-31T03:13:40.062Z,101269.19
2022-12-31T03:16:42.417Z,101275.25
2022-12-31T03:20:03.116Z,101252.88
2022-12-31T03:23:08.788Z,101232.38
2022-12-31T03:26:12.672Z,101202.47
2022-12-31T03:29:15.095Z,101255.50
2022-12-31T03:32:17.458Z,101268.34
2022-12-31T03:35:21.694Z,101264.94
2022-12-31T03:38:24.759Z,101266.66
2022-12-31T03:41:27.513Z,101283.78
2022-12-31T03:44:29.917Z,101277.72
2022-12-31T03:47:32.624Z,101270.94
2022-12-31T03:50:37.610Z,101262.41
2022-12-31T03:53:39.957Z,101278.66
2022-12-31T03:56:42.786Z,101276.13
2022-12-31T03:59:45.119Z,101279.56
2022-12-31T04:02:48.458Z,101259.84
2022-12-31T04:05:55.330Z,101280.31
2022-12-31T04:08:57.753Z,101278.63
2022-12-31T04:12:00.201Z,101284.59
2022-12-31T04:15:05.790Z,101280.34
2022-12-31T04:18:08.250Z,101294.88
2022-12-31T04:21:10.935Z,101265.81
2022-12-31T04:24:13.441Z,101296.63
2022-12-31T04:27:15.811Z,101256.41
2022-12-31T04:30:18.307Z,101255.47
2022-12-31T04:33:20.629Z,101246.06
2022-12-31T04:36:22.976Z,101261.44
2022-12-31T04:39:26.180Z,101254.66
2022-12-31T04:42:28.582Z,101252.84
2022-12-31T04:45:31.139Z,101228.94
2022-12-31T04:48:34.916Z,101257.19
2022-12-31T04:51:37.732Z,101220.31
2022-12-31T04:54:40.135Z,101253.75
2022-12-31T04:57:42.483Z,101246.03
2022-12-31T05:00:46.198Z,101246.00
2022-12-31T05:03:49.346Z,101227.16
2022-12-31T05:06:51.777Z,101234.00
2022-12-31T05:09:54.421Z,101213.44
2022-12-31T05:12:56.733Z,101193.84
2022-12-31T05:15:59.059Z,101203.31
2022-12-31T05:19:01.459Z,101246.09
2022-12-31T05:22:22.087Z,101231.53
2022-12-31T05:25:24.581Z,101223.88
2022-12-31T05:28:27.012Z,101246.97
2022-12-31T05:31:29.510Z,101243.44
2022-12-31T05:34:31.867Z,101269.97
2022-12-31T05:37:34.439Z,101258.88
2022-12-31T05:40:36.777Z,101234.97
2022-12-31T05:43:39.146Z,101248.59
2022-12-31T05:46:41.508Z,101234.06
2022-12-31T05:49:44.061Z,101246.03
2022-12-31T05:52:47.726Z,101225.53
2022-12-31T05:55:50.300Z,101249.47
2022-12-31T05:58:52.628Z,101267.53
2022-12-31T06:01:55.299Z,101256.44
2022-12-31T06:04:57.674Z,101242.72
2022-12-31T06:08:00.142Z,101288.06
2022-12-31T06:11:02.609Z,101295.78
2022-12-31T06:14:05.535Z,101302.66
2022-12-31T06:17:07.944Z,101286.31
2022-12-31T06:20:13.152Z,101279.38
2022-12-31T06:23:15.902Z,101285.47
2022-12-31T06:26:18.333Z,101258.13
2022-12-31T06:29:20.961Z,101246.19
2022-12-31T06:32:23.341Z,101260.72
2022-12-31T06:35:25.772Z,101228.13
2022-12-31T06:38:30.237Z,101288.88
2022-12-31T06:41:32.969Z,101258.97
2022-12-31T06:44:35.321Z,101263.25
2022-12-31T06:47:37.765Z,101287.16
2022-12-31T06:50:40.417Z,101277.00
2022-12-31T06:53:43.201Z,101291.56
2022-12-31T06:56:45.809Z,101301.00
2022-12-31T06:59:48.397Z,101289.81
2022-12-31T07:03:16.984Z,101328.34
2022-12-31T07:06:37.652Z,101327.50
2022-12-31T07:09:53.762Z,101338.59
2022-12-31T07:13:07.016Z,101326.59
2022-12-31T07:16:27.977Z,101333.44
2022-12-31T07:19:57.653Z,101339.44
2022-12-31T07:23:00.585Z,101347.13
2022-12-31T07:26:11.286Z,101349.72
2022-12-31T07:29:37.949Z,101324.03
2022-12-31T07:33:24.493Z,101335.19
2022-12-31T07:36:55.520Z,101350.63
2022-12-31T07:40:24.013Z,101346.31
2022-12-31T07:43:56.282Z,101357.44
2022-12-31T07:47:03.556Z,101374.56
2022-12-31T07:50:06.912Z,101372.91
2022-12-31T07:53:10.427Z,101365.19
2022-12-31T07:56:13.580Z,101371.13
2022-12-31T07:59:46.806Z,101372.00
2022-12-31T08:03:19.141Z,101342.84
2022-12-31T08:06:36.863Z,101383.75
2022-12-31T08:10:12.571Z,101366.63
2022-12-31T08:13:18.488Z,101372.59
2022-12-31T08:16:21.807Z,101347.81
2022-12-31T08:19:30.696Z,101332.50
2022-12-31T08:22:59.058Z,101362.31
2022-12-31T08:26:36.526Z,101374.28
2022-12-31T08:30:00.433Z,101377.72
2022-12-31T08:33:14.295Z,101355.53
2022-12-31T08:36:23.337Z,101380.25
2022-12-31T08:39:51.165Z,101396.50
2022-12-31T08:43:30.453Z,101401.59
2022-12-31T08:47:03.581Z,101398.91
2022-12-31T08:50:07.256Z,101386.00
2022-12-31T08:53:10.129Z,101404.69
2022-12-31T08:56:34.579Z,101383.41
2022-12-31T08:59:47.898Z,101409.06
2022-12-31T09:02:50.373Z,101417.66
2022-12-31T09:05:58.843Z,101413.53
2022-12-31T09:09:27.288Z,101405.69
2022-12-31T09:12:32.777Z,101400.63
2022-12-31T09:15:47.586Z,101361.28
2022-12-31T09:18:50.005Z,101344.88
2022-12-31T09:21:52.919Z,101372.25
2022-12-31T09:24:55.549Z,101380.00
2022-12-31T09:28:09.454Z,101360.22
2022-12-31T09:31:18.452Z,101364.44
2022-12-31T09:34:40.379Z,101378.25
2022-12-31T09:37:49.368Z,101392.19
2022-12-31T09:41:14.971Z,101402.50
2022-12-31T09:44:35.616Z,101414.59
2022-12-31T09:47:43.805Z,101411.06
2022-12-31T09:51:30.007Z,101405.75
2022-12-31T09:54:54.059Z,101403.38
2022-12-31T09:58:07.217Z,101405.16
2022-12-31T10:01:34.965Z,101371.75
2022-12-31T10:04:58.338Z,101386.97
2022-12-31T10:08:45.183Z,101386.97
2022-12-31T10:12:02.645Z,101372.25
2022-12-31T10:15:23.457Z,101365.44
2022-12-31T10:19:12.188Z,101361.06
2022-12-31T10:22:41.007Z,101301.13
2022-12-31T10:26:01.289Z,101355.84
2022-12-31T10:29:24.952Z,101334.75
2022-12-31T10:32:43.489Z,101353.31
2022-12-31T10:36:21.719Z,101351.66
2022-12-31T10:39:50.465Z,101369.00
2022-12-31T10:43:01.973Z,101384.53
2022-12-31T10:46:33.383Z,101399.06
2022-12-31T10:49:44.889Z,101412.00
2022-12-31T10:53:11.598Z,101399.03
2022-12-31T10:56:13.903Z,101386.91
2022-12-31T10:59:57.313Z,101376.59
2022-12-31T11:03:47.621Z,101352.44
2022-12-31T11:07:23.702Z,101392.09
2022-12-31T11:10:32.730Z,101409.25
2022-12-31T11:14:12.711Z,101410.03
2022-12-31T11:17:41.179Z,101412.72
2022-12-31T11:21:09.006Z,101384.59
2022-12-31T11:24:33.294Z,101401.75
2022-12-31T11:27:59.743Z,101398.16
2022-12-31T11:31:39.660Z,101384.56
2022-12-31T11:35:07.556Z,101409.41
2022-12-31T11:38:38.703Z,101417.19
2022-12-31T11:41:54.348Z,101411.22
2022-12-31T11:45:37.666Z,101412.16
2022-12-31T11:49:02.790Z,101389.88
2022-12-31T11:52:49.697Z,101393.25
2022-12-31T11:56:46.193Z,101387.06
2022-12-31T11:59:49.950Z,101382.78
2022-12-31T12:02:59.740Z,101353.88
2022-12-31T12:06:02.147Z,101365.00
2022-12-31T12:09:14.416Z,101373.47
2022-12-31T12:12:17.134Z,101367.31
2022-12-31T12:15:35.465Z,101350.94
2022-12-31T12:18:47.455Z,101323.78
2022-12-31T12:21:51.030Z,101333.28
2022-12-31T12:25:16.009Z,101339.97
2022-12-31T12:28:18.744Z,101362.19
2022-12-31T12:31:23.527Z,101351.94
2022-12-31T12:34:37.843Z,101345.97
2022-12-31T12:37:40.178Z,101343.44
2022-12-31T12:40:59.674Z,101322.81
2022-12-31T12:44:07.786Z,101322.69
2022-12-31T12:47:16.143Z,101319.44
2022-12-31T12:50:25.869Z,101335.69
2022-12-31T12:53:55.848Z,101365.63
2022-12-31T12:57:28.701Z,101360.59
2022-12-31T13:00:57.230Z,101328.94
2022-12-31T13:04:34.066Z,101373.53
2022-12-31T13:07:43.036Z,101355.50
2022-12-31T13:11:15.432Z,101348.47
2022-12-31T13:14:41.636Z,101350.19
2022-12-31T13:17:47.081Z,101359.63
2022-12-31T13:21:49.469Z,101369.88
2022-12-31T13:25:00.456Z,101394.06
2022-12-31T13:28:06.381Z,101371.59
2022-12-31T13:31:20.119Z,101351.16
2022-12-31T13:34:28.810Z,101390.56
2022-12-31T13:37:39.603Z,101374.34
2022-12-31T13:41:25.374Z,101358.81
2022-12-31T13:44:42.341Z,101360.56
2022-12-31T13:47:50.769Z,101362.28
2022-12-31T13:51:02.068Z,101362.25
2022-12-31T13:54:10.129Z,101398.16
2022-12-31T13:57:26.035Z,101395.59
2022-12-31T14:00:53.865Z,101360.38
2022-12-31T14:04:07.428Z,101362.84
2022-12-31T14:07:22.089Z,101393.72
2022-12-31T14:10:31.764Z,101378.41
2022-12-31T14:13:45.530Z,101396.56
2022-12-31T14:16:59.712Z,101421.41
2022-12-31T14:20:23.657Z,101428.28
2022-12-31T14:23:58.233Z,101431.63
2022-12-31T14:27:05.503Z,101402.56
2022-12-31T14:30:31.079Z,101390.44
2022-12-31T14:34:15.699Z,101419.56
2022-12-31T14:37:36.756Z,101409.50
2022-12-31T14:40:54.324Z,101442.06
2022-12-31T14:44:05.412Z,101452.28
2022-12-31T14:47:09.078Z,101445.38
2022-12-31T14:50:23.682Z,101443.59
2022-12-31T14:53:28.544Z,101449.75
2022-12-31T14:56:33.026Z,101447.22
2022-12-31T14:59:40.448Z,101442.13
2022-12-31T15:02:49.842Z,101434.47
2022-12-31T15:05:56.161Z,101460.22
2022-12-31T15:09:23.313Z,101455.09
2022-12-31T15:12:44.217Z,101457.59
2022-12-31T15:16:10.031Z,101445.63
2022-12-31T15:19:18.241Z,101458.44
2022-12-31T15:22:43.920Z,101455.06
2022-12-31T15:25:49.194Z,101435.41
2022-12-31T15:29:03.584Z,101466.22
2022-12-31T15:32:16.788Z,101458.44
2022-12-31T15:35:21.869Z,101451.56
2022-12-31T15:38:34.049Z,101440.41
2022-12-31T15:41:46.190Z,101452.38
2022-12-31T15:45:02.351Z,101425.78
2022-12-31T15:48:50.217Z,101459.22
2022-12-31T15:52:04.944Z,101449.88
2022-12-31T15:55:08.125Z,101462.69
2022-12-31T15:58:20.989Z,101443.00
2022-12-31T16:01:28.856Z,101442.16
2022-12-31T16:04:39.321Z,101462.75
2022-12-31T16:07:42.129Z,101450.72
2022-12-31T16:10:44.638Z,101454.84
2022-12-31T16:13:51.090Z,101459.31
2022-12-31T16:17:02.766Z,101471.31
2022-12-31T16:20:26.057Z,101463.56
2022-12-31T16:23:28.478Z,101445.63
2022-12-31T16:26:50.340Z,101482.47
2022-12-31T16:29:59.731Z,101447.34
2022-12-31T16:33:05.866Z,101474.75
2022-12-31T16:36:19.601Z,101442.22
2022-12-31T16:39:33.883Z,101456.78
2022-12-31T16:42:44.101Z,101464.47
2022-12-31T16:45:46.939Z,101492.75
2022-12-31T16:48:55.714Z,101464.47
2022-12-31T16:52:28.009Z,101470.41
2022-12-31T16:55:32.262Z,101493.66
2022-12-31T16:58:40.441Z,101493.63
2022-12-31T17:01:43.547Z,101462.75
2022-12-31T17:04:56.112Z,101457.59
2022-12-31T17:08:19.361Z,101453.25
2022-12-31T17:11:28.774Z,101488.41
2022-12-31T17:14:31.181Z,101478.88
2022-12-31T17:17:38.029Z,101473.78
2022-12-31T17:20:40.522Z,101447.22
2022-12-31T17:23:49.261Z,101464.41
2022-12-31T17:26:52.252Z,101486.63
2022-12-31T17:29:54.668Z,101481.47
2022-12-31T17:33:13.030Z,101490.88
2022-12-31T17:36:22.546Z,101473.75
2022-12-31T17:39:26.616Z,101484.06
2022-12-31T17:42:39.789Z,101455.66
2022-12-31T17:45:44.123Z,101448.78
2022-12-31T17:48:51.974Z,101420.56
2022-12-31T17:51:54.371Z,101434.28
2022-12-31T17:54:56.733Z,101475.47
2022-12-31T17:58:04.774Z,101491.03
2022-12-31T18:01:08.588Z,101479.19
2022-12-31T18:04:15.996Z,101470.66
2022-12-31T18:07:18.440Z,101491.22
2022-12-31T18:10:24.460Z,101449.22
2022-12-31T18:13:27.620Z,101461.13
2022-12-31T18:16:30.510Z,101463.78
2022-12-31T18:22:55.935Z,101465.50
2022-12-31T18:25:58.346Z,101476.66
2022-12-31T18:29:13.744Z,101452.72
2022-12-31T18:32:27.087Z,101476.63
2022-12-31T18:38:52.860Z,101449.25
2022-12-31T18:41:55.276Z,101488.72
2022-12-31T18:44:57.744Z,101481.03
2022-12-31T18:48:00.122Z,101481.91
2022-12-31T18:51:02.474Z,101463.91
2022-12-31T18:54:05.055Z,101478.44
2022-12-31T18:57:07.471Z,101456.13
2022-12-31T19:00:11.003Z,101455.28
2022-12-31T19:03:21.734Z,101457.88
2022-12-31T19:06:24.669Z,101486.19
2022-12-31T19:12:50.236Z,101488.75
2022-12-31T19:15:53.512Z,101446.72
2022-12-31T19:18:55.950Z,101475.88
2022-12-31T19:21:58.318Z,101425.31
2022-12-31T19:25:00.675Z,101489.59
2022-12-31T19:28:04.216Z,101483.59
2022-12-31T19:31:06.933Z,101510.16
2022-12-31T19:34:09.523Z,101483.59
2022-12-31T19:37:15.273Z,101506.75
2022-12-31T19:40:29.580Z,101492.19
2022-12-31T19:43:32.027Z,101462.19
2022-12-31T19:46:34.414Z,101487.91
2022-12-31T19:49:36.781Z,101480.16
2022-12-31T19:52:39.147Z,101458.72
2022-12-31T19:55:42.400Z,101462.16
2022-12-31T19:58:45.465Z,101472.44
2022-12-31T20:01:47.982Z,101487.00
2022-12-31T20:04:50.647Z,101464.72
2022-12-31T20:07:53.057Z,101486.16
2022-12-31T20:10:58.839Z,101502.44
2022-12-31T20:14:01.257Z,101485.25
2022-12-31T20:17:03.760Z,101488.66
2022-12-31T20:20:06.978Z,101480.03
2022-12-31T20:23:09.909Z,101515.22
2022-12-31T20:26:12.781Z,101505.78
2022-12-31T20:29:15.235Z,101502.34
2022-12-31T20:32:17.992Z,101484.31
2022-12-31T20:35:20.340Z,101491.19
2022-12-31T20:38:22.720Z,101472.31
2022-12-31T20:41:26.281Z,101499.78
2022-12-31T20:44:28.758Z,101485.19
2022-12-31T20:47:31.113Z,101453.44
2022-12-31T20:50:33.638Z,101453.41
2022-12-31T20:53:36.056Z,101484.22
2022-12-31T20:56:40.329Z,101479.13
2022-12-31T20:59:42.757Z,101465.41
2022-12-31T21:02:50.931Z,101523.69
2022-12-31T21:05:56.466Z,101495.44
2022-12-31T21:09:00.674Z,101487.78
2022-12-31T21:12:21.963Z,101487.81
2022-12-31T21:15:24.348Z,101514.28
2022-12-31T21:18:26.989Z,101478.19
2022-12-31T21:21:29.385Z,101485.88
2022-12-31T21:24:31.753Z,101468.75
2022-12-31T21:27:35.877Z,101470.44
2022-12-31T21:30:41.779Z,101497.84
2022-12-31T21:33:45.957Z,101518.44
2022-12-31T21:36:48.309Z,101491.81
2022-12-31T21:39:50.963Z,101496.88
2022-12-31T21:42:53.341Z,101508.91
2022-12-31T21:46:07.154Z,101504.59
2022-12-31T21:49:09.578Z,101535.44
2022-12-31T21:52:28.536Z,101510.59
2022-12-31T21:55:49.059Z,101529.47
2022-12-31T21:59:16.917Z,101539.69
2022-12-31T22:02:38.246Z,101490.78
2022-12-31T22:05:58.932Z,101535.34
2022-12-31T22:09:01.488Z,101522.44
2022-12-31T22:12:04.088Z,101515.53
2022-12-31T22:15:14.445Z,101491.59
2022-12-31T22:18:18.736Z,101545.66
2022-12-31T22:21:23.725Z,101527.75
2022-12-31T22:24:26.088Z,101543.94
2022-12-31T22:27:30.040Z,101552.50
2022-12-31T22:30:33.439Z,101525.00
2022-12-31T22:33:36.056Z,101543.94
2022-12-31T22:36:38.458Z,101538.00
2022-12-31T22:39:43.369Z,101515.72
2022-12-31T22:42:47.161Z,101520.84
2022-12-31T22:45:49.547Z,101541.56
2022-12-31T22:48:53.681Z,101527.78
2022-12-31T22:51:59.845Z,101528.59
2022-12-31T22:55:05.804Z,101498.50
2022-12-31T22:58:08.177Z,101465.00
2022-12-31T23:01:22.395Z,101486.22
2022-12-31T23:04:25.009Z,101517.97
2022-12-31T23:07:27.378Z,101505.03
2022-12-31T23:10:48.254Z,101508.34
2022-12-31T23:14:10.025Z,101528.94
2022-12-31T23:17:36.178Z,101507.63
2022-12-31T23:20:57.368Z,101507.59
2022-12-31T23:23:59.990Z,101538.50
2022-12-31T23:27:02.762Z,101540.34
2022-12-31T23:30:05.948Z,101513.72
2022-12-31T23:33:14.289Z,101524.94
2022-12-31T23:36:16.671Z,101548.16
2022-12-31T23:39:19.753Z,101532.66
2022-12-31T23:42:22.182Z,101537.91
2022-12-31T23:45:29.563Z,101516.50
2022-12-31T23:48:35.333Z,101544.91
2022-12-31T23:51:37.965Z,101538.88
2022-12-31T23:54:40.476Z,101552.53
2022-12-31T23:57:43.526Z,101555.97
